Latest Weather Observations for Spitfire Channel

IDQ60901

Issued at 11:41 pm EST Saturday 28 May 2016 (issued every 10 minutes, with the page automatically refreshed every 10 minutes)

About weather observations | Map of Brisbane area stations | Latest observations for Brisbane area | Other Formats
Station Details ID: 040927 Name: SPITFIRE CHANNEL BEACON Lat: -27.05 Lon: 153.27 Height: 7.0 m
Data from the previous 72 hours. | See also: Recent months for locations in Queensland
Date/Time
EST
Tmp

°C
App
Tmp
°C
Dew
Point
°C
Rel
Hum
%
Delta-T

°C
Wind Press
QNH
hPa
Press
MSL
hPa
Rain
since
9 am
mm
Dir
 
Spd
km/h
Gust
km/h
Spd
kts
Gust
kts
28/11:30pm - - - - - WSW 20 26 11 14 - - -
28/11:00pm - - - - - W 22 32 12 17 - - -
28/10:30pm - - - - - W 20 26 11 14 - - -
28/10:00pm - - - - - WSW 22 26 12 14 - - -
28/09:30pm - - - - - WSW 24 28 13 15 - - -
28/09:00pm - - - - - WSW 22 28 12 15 - - -
28/08:30pm - - - - - WSW 22 28 12 15 - - -
28/08:00pm - - - - - SW 24 28 13 15 - - -
28/07:30pm - - - - - WSW 30 37 16 20 - - -
28/07:00pm - - - - - WSW 28 37 15 20 - - -
28/06:30pm - - - - - WSW 30 35 16 19 - - -
28/06:00pm - - - - - WSW 28 33 15 18 - - -
28/05:30pm - - - - - SW 19 24 10 13 - - -
28/05:00pm - - - - - WSW 28 35 15 19 - - -
28/04:30pm - - - - - WSW 28 35 15 19 - - -
28/04:00pm - - - - - WSW 26 35 14 19 - - -
28/03:30pm - - - - - SW 30 35 16 19 - - -
28/03:00pm - - - - - WSW 37 46 20 25 - - -
28/02:30pm - - - - - WSW 33 43 18 23 - - -
28/02:00pm - - - - - WSW 22 30 12 16 - - -
28/01:30pm - - - - - SW 22 30 12 16 - - -
28/01:00pm - - - - - W 20 30 11 16 - - -
28/12:30pm - - - - - SW 13 22 7 12 - - -
28/12:00pm - - - - - W 17 22 9 12 - - -
28/11:30am - - - - - SSW 13 20 7 11 - - -
28/11:00am - - - - - SW 11 13 6 7 - - -
28/10:30am - - - - - SW 17 24 9 13 - - -
28/10:00am - - - - - W 13 20 7 11 - - -
28/09:30am - - - - - SW 17 24 9 13 - - -
28/09:00am - - - - - W 19 22 10 12 - - -
28/08:30am - - - - - W 20 24 11 13 - - -
28/08:00am - - - - - W 22 28 12 15 - - -
28/07:30am - - - - - W 19 24 10 13 - - -
28/07:00am - - - - - WSW 20 26 11 14 - - -
28/06:30am - - - - - WSW 20 24 11 13 - - -
28/06:00am - - - - - WSW 22 26 12 14 - - -
28/05:30am - - - - - SW 22 26 12 14 - - -
28/05:00am - - - - - SW 22 28 12 15 - - -
28/04:30am - - - - - SW 24 30 13 16 - - -
28/04:00am - - - - - SW 28 33 15 18 - - -
28/03:30am - - - - - SW 20 24 11 13 - - -
28/03:00am - - - - - SW 28 32 15 17 - - -
28/02:30am - - - - - WSW 30 35 16 19 - - -
28/02:00am - - - - - SW 28 35 15 19 - - -
28/01:30am - - - - - SW 26 32 14 17 - - -
28/01:00am - - - - - SW 32 39 17 21 - - -
28/12:30am - - - - - SW 37 43 20 23 - - -
28/12:00am - - - - - SW 39 44 21 24 - - -
 
Date/Time
EST
Tmp

°C
App
Tmp
°C
Dew
Point
°C
Rel
Hum
%
Delta-T

°C
Wind Press
QNH
hPa
Press
MSL
hPa
Rain
since
9 am
mm
Dir
 
Spd
km/h
Gust
km/h
Spd
kts
Gust
kts
27/11:30pm - - - - - SW 39 44 21 24 - - -
27/11:00pm - - - - - SW 32 41 17 22 - - -
27/10:30pm - - - - - SW 20 24 11 13 - - -
27/10:00pm - - - - - SW 28 32 15 17 - - -
27/09:30pm - - - - - WSW 30 37 16 20 - - -
27/09:00pm - - - - - WSW 22 26 12 14 - - -
27/08:30pm - - - - - SW 24 30 13 16 - - -
27/08:00pm - - - - - SW 26 33 14 18 - - -
27/07:30pm - - - - - SSW 28 35 15 19 - - -
27/07:00pm - - - - - WSW 17 20 9 11 - - -
27/06:30pm - - - - - WSW 20 24 11 13 - - -
27/06:00pm - - - - - WSW 24 35 13 19 - - -
27/05:30pm - - - - - W 19 22 10 12 - - -
27/05:00pm - - - - - W 24 28 13 15 - - -
27/04:30pm - - - - - WSW 26 32 14 17 - - -
27/04:00pm - - - - - WSW 37 44 20 24 - - -
27/03:30pm - - - - - SW 33 41 18 22 - - -
27/03:00pm - - - - - SW 32 37 17 20 - - -
27/02:30pm - - - - - WSW 33 44 18 24 - - -
27/02:00pm - - - - - WSW 30 37 16 20 - - -
27/01:30pm - - - - - WSW 32 39 17 21 - - -
27/01:00pm - - - - - WSW 28 35 15 19 - - -
27/12:30pm - - - - - WSW 28 41 15 22 - - -
27/12:00pm - - - - - WSW 26 33 14 18 - - -
27/11:30am - - - - - WSW 26 33 14 18 - - -
27/11:00am - - - - - WSW 28 37 15 20 - - -
27/10:30am - - - - - WSW 26 35 14 19 - - -
27/10:00am - - - - - W 22 28 12 15 - - -
27/09:30am - - - - - WNW 24 26 13 14 - - -
27/09:00am - - - - - WNW 26 30 14 16 - - -
27/08:30am - - - - - WNW 22 26 12 14 - - -
27/08:00am - - - - - WNW 17 20 9 11 - - -
27/07:30am - - - - - W 15 17 8 9 - - -
27/07:00am - - - - - W 17 20 9 11 - - -
27/06:30am - - - - - W 15 19 8 10 - - -
27/06:00am - - - - - WNW 11 13 6 7 - - -
27/05:30am - - - - - WNW 13 17 7 9 - - -
27/05:00am - - - - - WNW 19 24 10 13 - - -
27/04:30am - - - - - WNW 24 28 13 15 - - -
27/04:00am - - - - - NW 26 30 14 16 - - -
27/03:30am - - - - - NW 26 32 14 17 - - -
27/03:00am - - - - - NW 26 32 14 17 - - -
27/02:30am - - - - - NW 26 30 14 16 - - -
27/02:00am - - - - - NW 26 32 14 17 - - -
27/01:30am - - - - - NW 24 28 13 15 - - -
27/01:00am - - - - - NW 22 26 12 14 - - -
27/12:30am - - - - - WNW 24 32 13 17 - - -
27/12:00am - - - - - NW 33 39 18 21 - - -
 
Date/Time
EST
Tmp

°C
App
Tmp
°C
Dew
Point
°C
Rel
Hum
%
Delta-T

°C
Wind Press
QNH
hPa
Press
MSL
hPa
Rain
since
9 am
mm
Dir
 
Spd
km/h
Gust
km/h
Spd
kts
Gust
kts
26/11:30pm - - - - - NNW 43 48 23 26 - - -
26/11:00pm - - - - - NNW 41 48 22 26 - - -
26/10:30pm - - - - - NNW 43 50 23 27 - - -
26/10:00pm - - - - - NNW 43 50 23 27 - - -
26/09:30pm - - - - - NNW 46 57 25 31 - - -
26/09:00pm - - - - - NNW 43 56 23 30 - - -
26/08:30pm - - - - - NNW 43 52 23 28 - - -
26/08:00pm - - - - - NNW 48 61 26 33 - - -
26/07:30pm - - - - - NNW 46 57 25 31 - - -
26/07:00pm - - - - - NNW 46 56 25 30 - - -
26/06:30pm - - - - - NNW 43 52 23 28 - - -
26/06:00pm - - - - - NNW 41 48 22 26 - - -
26/05:30pm - - - - - N 41 46 22 25 - - -
26/05:00pm - - - - - N 43 52 23 28 - - -
26/04:30pm - - - - - N 35 43 19 23 - - -
26/04:00pm - - - - - N 37 44 20 24 - - -
26/03:30pm - - - - - N 35 43 19 23 - - -
26/03:00pm - - - - - N 33 39 18 21 - - -
26/02:30pm - - - - - N 32 43 17 23 - - -
26/02:00pm - - - - - N 32 37 17 20 - - -
26/01:30pm - - - - - N 32 35 17 19 - - -
26/01:00pm - - - - - N 32 35 17 19 - - -
26/12:30pm - - - - - NNW 30 33 16 18 - - -
26/12:00pm - - - - - NNW 30 35 16 19 - - -
26/11:30am - - - - - NNW 30 35 16 19 - - -
26/11:00am - - - - - NNW 33 39 18 21 - - -
26/10:30am - - - - - NNW 32 35 17 19 - - -
26/10:00am - - - - - NNW 24 30 13 16 - - -
26/09:30am - - - - - NW 20 24 11 13 - - -
26/09:00am - - - - - NW 22 30 12 16 - - -
26/08:30am - - - - - NW 20 26 11 14 - - -
26/08:00am - - - - - NW 13 17 7 9 - - -
26/07:30am - - - - - WNW 11 13 6 7 - - -
26/07:00am - - - - - WNW 15 19 8 10 - - -
26/06:30am - - - - - NW 22 26 12 14 - - -
26/06:00am - - - - - WNW 24 32 13 17 - - -
26/05:30am - - - - - WNW 26 30 14 16 - - -
26/05:00am - - - - - NW 26 32 14 17 - - -
26/04:30am - - - - - NW 24 28 13 15 - - -
26/04:00am - - - - - WNW 20 24 11 13 - - -
26/03:30am - - - - - WNW 19 22 10 12 - - -
26/03:00am - - - - - WNW 20 26 11 14 - - -
26/02:30am - - - - - NW 17 20 9 11 - - -
26/02:00am - - - - - WNW 15 19 8 10 - - -
26/01:30am - - - - - WNW 13 17 7 9 - - -
26/01:00am - - - - - W 13 17 7 9 - - -
26/12:30am - - - - - WNW 11 15 6 8 - - -
26/12:00am - - - - - WNW 13 17 7 9 - - -

Latest Capital City Observations: Canberra | Sydney | Melbourne | Brisbane | Adelaide | Perth | Hobart | Darwin

Other Formats:

Comma delimited format used in spreadsheet applications
http://www.bom.gov.au/fwo/IDQ60901/IDQ60901.94581.axf

JavaScript Object Notation format (JSON) in row-major order
http://www.bom.gov.au/fwo/IDQ60901/IDQ60901.94581.json